Terminal Aerodrome Forecast
Issued by NWS

Home | Current Version | Previous Version | Text Only | Print | Product List | Glossary On
Versions: 1 2 3 4 5 6 7 8 9 10 11 12 13 14 15 16 17 18 19 20 21 22 23 24 25 26 27 28 29 30 31
000
FTUS43 KDTX 052320
TAFYIP
TAF
KYIP 052320Z 0600/0624 06005KT 5SM -SHRA BR OVC015
     FM060300 09005KT 4SM -SHRA BR OVC006
     FM060600 07005KT 2SM BR OVC006
     FM061400 04004KT 5SM HZ OVC015=

USA.gov is the U.S. government's official web portal to all federal, state and local government web resources and services.